Pagrindinis puslapis
METAR-TAF:

METAR-TAF

Oro uostai :

Nikosija, Kipras

platuma: 35-09N, ilguma: 033-30E, Aukštis: 91 m

Dabartinis oras

Ataskaita buvo paskelbta 31 minutes, ne 21:20 UTC
Vėjas 5 kt iš Šiaurės/Šiaurės Vakarų
Temperatūra 18°C
Drėgmė 83%
Slėgis 1011 hPa
Matomumas 10 km arba daugiau
Mažai debesys ne aukštis 2500 ft

METAR: LCEN 172120Z 34005KT 9999 FEW025 18/15 Q1011 NOSIG RMK RWY11 34006KT

Laikas: 00:51 (21:51 UTC)

Prognozė

Ataskaita buvo paskelbta 5 valandos ir 11 minutes, ne 16:40 UTC
Prognozė galioja nuo 17 metu 18 UTC su 18 metu 18 UTC
Vėjas 12 kt iš Vakarų/Šiaurės Vakarų
Matomumas 10 km arba daugiau
nėra debesų žemiau 1500 m ir nėra kamuolinių lietaus debesų

TAF: LCEN 171640Z 1718/1818 29012KT CAVOK

Orai ataskaitas ir orų prognozės (METAR, TAF).

turimą stotys yra geltonos ir raudonos taškus žemėlapyje.

Perkelti pele per norėdami pamatyti stoties vardą.

Tada spustelėkite, norėdami matyti oro stebėjimo ir prognozės.

Norėdami pakeisti žemėlapį: spustelėkite ant žalios mygtukų su juodo kryžiaus žemyn,; žalią mygtuką su brūkšneliu, jei norite nutolinti; arba žalių rodyklių gretimoms žemėlapius.


METAR-TAF: